Terminal Aerodrome Forecast
Issued by NWS Goodland, KS

Home | Current Version | Previous Version | Text Only | Print | Product List | Glossary On
Versions: 1 2 3 4 5 6 7 8 9 10 11 12 13 14 15 16 17 18 19 20 21 22 23 24 25
000
FTUS43 KGLD 222340
TAFGLD
TAF
KGLD 222340Z 2300/2324 16014KT P6SM -SHRA FEW010 OVC030
      TEMPO 2300/2304 5SM SHRA SCT007 BKN015
     FM230400 13013KT 6SM -SHRA BR OVC020
     FM230700 14013KT 5SM -SHRA BR OVC005
     FM231000 12008KT 1SM -SHRA BR OVC005
     FM231600 35009KT 6SM BR OVC010
     FM232000 34013KT P6SM OVC020
     FM232200 34012KT P6SM BKN035=

USA.gov is the U.S. government's official web portal to all federal, state and local government web resources and services.